createdAt,value
2017-05-29T00:00:31.196Z,19.98
2017-05-29T00:03:12.546Z,19.08
2017-05-29T00:05:40.195Z,20.80
2017-05-29T00:08:08.209Z,18.50
2017-05-29T00:10:49.120Z,19.43
2017-05-29T00:13:15.981Z,17.97
2017-05-29T00:15:47.845Z,19.02
2017-05-29T00:18:20.009Z,20.13
2017-05-29T00:20:52.931Z,19.85
2017-05-29T00:23:22.126Z,19.67
2017-05-29T00:25:55.546Z,20.98
2017-05-29T00:28:22.990Z,19.25
2017-05-29T00:30:49.787Z,16.28
2017-05-29T00:33:16.611Z,17.88
2017-05-29T00:35:53.766Z,18.95
2017-05-29T00:38:25.525Z,18.85
2017-05-29T00:40:54.573Z,18.70
2017-05-29T00:43:28.091Z,20.15
2017-05-29T00:45:55.934Z,18.02
2017-05-29T00:48:25.425Z,20.60
2017-05-29T00:50:56.205Z,18.30
2017-05-29T00:53:23.045Z,18.68
2017-05-29T00:55:51.017Z,22.05
2017-05-29T00:58:18.693Z,18.98
2017-05-29T01:00:45.526Z,21.03
2017-05-29T01:03:13.743Z,20.72
2017-05-29T01:05:43.348Z,22.93
2017-05-29T01:08:10.975Z,23.93
2017-05-29T01:10:38.099Z,23.62
2017-05-29T01:13:12.777Z,25.00
2017-05-29T01:15:43.393Z,23.07
2017-05-29T01:18:21.777Z,22.02
2017-05-29T01:20:49.321Z,21.75
2017-05-29T01:23:19.709Z,25.95
2017-05-29T01:25:46.814Z,24.27
2017-05-29T01:28:21.450Z,24.30
2017-05-29T01:30:49.043Z,24.75
2017-05-29T01:33:18.497Z,26.07
2017-05-29T01:35:47.737Z,25.23
2017-05-29T01:38:17.384Z,28.28
2017-05-29T01:40:44.901Z,30.05
2017-05-29T01:43:15.970Z,26.72
2017-05-29T01:45:43.834Z,27.52
2017-05-29T01:48:20.822Z,27.15
2017-05-29T01:50:48.641Z,28.23
2017-05-29T01:53:16.168Z,30.25
2017-05-29T01:55:44.332Z,28.12
2017-05-29T01:58:24.968Z,27.60
2017-05-29T02:00:59.698Z,25.82
2017-05-29T02:03:27.207Z,28.67
2017-05-29T02:06:05.609Z,29.97
2017-05-29T02:08:32.664Z,26.43
2017-05-29T02:10:59.552Z,28.22
2017-05-29T02:13:26.666Z,33.15
2017-05-29T02:15:54.475Z,34.97
2017-05-29T02:18:22.375Z,32.00
2017-05-29T02:20:51.878Z,29.05
2017-05-29T02:23:21.391Z,29.08
2017-05-29T02:25:49.129Z,27.98
2017-05-29T02:28:24.863Z,29.88
2017-05-29T02:30:52.681Z,28.73
2017-05-29T02:33:20.163Z,29.50
2017-05-29T02:35:48.348Z,26.12
2017-05-29T02:38:16.041Z,29.92
2017-05-29T02:40:42.849Z,28.12
2017-05-29T02:43:10.702Z,25.68
2017-05-29T02:45:37.986Z,26.50
2017-05-29T02:48:11.148Z,24.88
2017-05-29T02:50:40.291Z,27.37
2017-05-29T02:53:09.597Z,26.42
2017-05-29T02:55:40.109Z,25.10
2017-05-29T02:58:06.912Z,26.52
2017-05-29T03:00:39.262Z,25.08
2017-05-29T03:03:06.392Z,26.12
2017-05-29T03:05:33.173Z,24.48
2017-05-29T03:08:02.308Z,24.17
2017-05-29T03:10:30.758Z,24.78
2017-05-29T03:12:58.471Z,23.48
2017-05-29T03:18:04.405Z,24.05
2017-05-29T03:20:33.655Z,24.30
2017-05-29T03:23:01.428Z,23.10
2017-05-29T03:25:39.084Z,23.12
2017-05-29T03:28:06.730Z,24.87
2017-05-29T03:30:34.513Z,24.77
2017-05-29T03:33:11.009Z,25.48
2017-05-29T03:35:41.301Z,25.47
2017-05-29T03:38:12.920Z,22.25
2017-05-29T03:40:40.370Z,24.37
2017-05-29T03:45:47.246Z,22.12
2017-05-29T03:48:14.869Z,21.43
2017-05-29T03:50:41.976Z,21.82
2017-05-29T03:53:09.548Z,20.58
2017-05-29T03:55:36.642Z,19.83
2017-05-29T03:58:05.988Z,16.93
2017-05-29T04:05:54.166Z,18.35
2017-05-29T04:08:21.861Z,16.27
2017-05-29T04:10:49.682Z,17.25
2017-05-29T04:16:02.362Z,14.55
2017-05-29T04:18:30.329Z,16.12
2017-05-29T04:21:07.093Z,16.37
2017-05-29T04:23:50.779Z,15.68
2017-05-29T04:26:21.150Z,16.83
2017-05-29T04:28:54.798Z,14.95
2017-05-29T04:31:22.239Z,15.93
2017-05-29T04:33:49.828Z,14.95
2017-05-29T04:36:18.135Z,14.15
2017-05-29T04:38:45.763Z,14.73
2017-05-29T04:41:12.786Z,14.62
2017-05-29T04:43:40.583Z,13.88
2017-05-29T04:46:07.998Z,16.90
2017-05-29T04:48:41.166Z,13.63
2017-05-29T04:51:08.421Z,14.05
2017-05-29T04:53:42.737Z,13.27
2017-05-29T04:56:10.346Z,14.58
2017-05-29T04:58:37.724Z,13.56
2017-05-29T05:01:18.681Z,12.16
2017-05-29T05:03:51.426Z,12.32
2017-05-29T07:38:59.941Z,11.24
2017-05-29T08:20:41.963Z,10.52
2017-05-29T08:23:11.055Z,10.32
2017-05-29T08:25:39.815Z,9.86
2017-05-29T08:28:09.767Z,10.58
2017-05-29T08:30:37.623Z,11.54
2017-05-29T08:35:51.564Z,12.08
2017-05-29T08:40:58.368Z,10.16
2017-05-29T08:46:10.847Z,9.90
2017-05-29T08:48:43.574Z,10.30
2017-05-29T08:51:16.796Z,11.18
2017-05-29T08:53:44.677Z,10.50
2017-05-29T08:56:14.736Z,11.20
2017-05-29T09:01:20.279Z,11.38
2017-05-29T09:03:48.192Z,11.28
2017-05-29T09:06:24.587Z,11.42
2017-05-29T09:08:54.792Z,10.60
2017-05-29T09:11:31.738Z,10.44
2017-05-29T09:14:09.438Z,9.70
2017-05-29T09:19:16.259Z,8.46
2017-05-29T09:21:57.261Z,10.06
2017-05-29T09:24:27.448Z,8.00
2017-05-29T09:26:55.751Z,8.76
2017-05-29T09:29:30.835Z,8.88
2017-05-29T09:32:07.236Z,9.88
2017-05-29T09:34:54.787Z,10.74
2017-05-29T09:37:24.283Z,7.82
2017-05-29T09:39:51.894Z,8.62
2017-05-29T09:48:08.028Z,10.92
2017-05-29T09:56:09.664Z,10.28
2017-05-29T09:58:43.774Z,9.82
2017-05-29T10:01:16.404Z,9.54
2017-05-29T10:03:49.853Z,10.74
2017-05-29T10:06:17.895Z,9.72
2017-05-29T10:14:44.653Z,11.88
2017-05-29T10:19:45.970Z,12.90
2017-05-29T10:22:15.834Z,12.04
2017-05-29T10:27:37.289Z,11.66
2017-05-29T10:32:52.961Z,12.44
2017-05-29T10:35:37.320Z,13.78
2017-05-29T10:38:10.481Z,14.92
2017-05-29T10:40:54.717Z,13.20
2017-05-29T10:43:47.084Z,13.14
2017-05-29T10:46:14.667Z,13.42
2017-05-29T10:48:50.449Z,15.32
2017-05-29T10:51:18.472Z,15.02
2017-05-29T10:56:40.200Z,14.52
2017-05-29T11:04:37.015Z,14.00
2017-05-29T11:09:55.935Z,12.88
2017-05-29T11:12:38.428Z,12.46
2017-05-29T11:20:46.753Z,15.42
2017-05-29T11:23:22.817Z,12.48
2017-05-29T11:28:52.484Z,11.32
2017-05-29T11:31:30.045Z,11.30
2017-05-29T11:36:48.665Z,9.90
2017-05-29T11:39:20.102Z,8.60
2017-05-29T11:42:00.585Z,8.76
2017-05-29T11:47:10.151Z,9.24
2017-05-29T11:49:40.529Z,8.80
2017-05-29T11:52:09.949Z,10.62
2017-05-29T11:54:47.678Z,9.54
2017-05-29T11:57:14.933Z,10.08
2017-05-29T11:59:53.670Z,9.48
2017-05-29T12:02:37.707Z,9.68
2017-05-29T12:10:12.293Z,10.16
2017-05-29T12:20:43.950Z,8.60
2017-05-29T12:23:11.817Z,8.26
2017-05-29T12:30:49.873Z,7.36
2017-05-29T12:49:36.088Z,7.78
2017-05-29T13:00:49.207Z,7.10
2017-05-29T13:06:16.249Z,9.16
2017-05-29T13:11:38.762Z,7.96
2017-05-29T13:19:37.012Z,6.48
2017-05-29T13:33:09.138Z,7.38
2017-05-29T13:35:43.453Z,7.04
2017-05-29T13:40:46.904Z,6.84
2017-05-29T13:46:09.479Z,7.30
2017-05-29T13:48:41.957Z,7.06
2017-05-29T13:54:26.256Z,6.98
2017-05-29T14:05:09.119Z,6.34
2017-05-29T14:10:21.556Z,5.74
2017-05-29T14:12:49.904Z,6.18
2017-05-29T14:15:17.349Z,6.30
2017-05-29T14:17:51.058Z,6.16
2017-05-29T14:20:34.207Z,6.86
2017-05-29T14:23:20.494Z,6.20
2017-05-29T14:25:52.474Z,5.56
2017-05-29T14:28:28.866Z,6.18
2017-05-29T14:30:57.164Z,6.28
2017-05-29T14:33:28.784Z,6.02
2017-05-29T14:36:06.003Z,6.22
2017-05-29T14:38:34.262Z,5.80
2017-05-29T14:41:02.906Z,5.78
2017-05-29T14:43:30.281Z,6.34
2017-05-29T14:46:07.716Z,7.22
2017-05-29T14:48:48.418Z,6.56
2017-05-29T14:51:15.632Z,5.68
2017-05-29T14:53:49.110Z,5.46
2017-05-29T14:56:24.157Z,6.54
2017-05-29T15:04:21.901Z,6.22
2017-05-29T15:06:50.106Z,6.64
2017-05-29T15:09:31.439Z,6.06
2017-05-29T15:12:04.410Z,5.88
2017-05-29T15:17:24.069Z,7.28
2017-05-29T15:19:51.197Z,6.08
2017-05-29T15:22:18.874Z,5.42
2017-05-29T15:27:31.293Z,6.58
2017-05-29T15:30:06.522Z,6.46
2017-05-29T15:32:39.919Z,6.20
2017-05-29T15:35:07.926Z,5.68
2017-05-29T15:37:35.043Z,6.80
2017-05-29T15:40:02.829Z,5.50
2017-05-29T15:42:30.353Z,6.80
2017-05-29T15:45:05.164Z,5.50
2017-05-29T15:47:33.284Z,4.72
2017-05-29T15:50:00.123Z,4.22
2017-05-29T15:52:27.051Z,4.12
2017-05-29T15:55:00.676Z,4.04
2017-05-29T15:57:27.771Z,4.90
2017-05-29T15:59:56.857Z,4.28
2017-05-29T16:02:24.013Z,4.76
2017-05-29T16:04:52.052Z,3.68
2017-05-29T16:07:18.978Z,4.60
2017-05-29T16:09:46.051Z,4.34
2017-05-29T16:12:13.269Z,4.20
2017-05-29T16:14:40.186Z,4.24
2017-05-29T16:17:10.349Z,4.82
2017-05-29T16:19:38.224Z,4.42
2017-05-29T16:22:05.162Z,4.38
2017-05-29T16:24:32.326Z,4.56
2017-05-29T16:27:03.723Z,4.66
2017-05-29T16:32:09.944Z,4.08
2017-05-29T16:34:37.610Z,4.56
2017-05-29T16:37:04.773Z,4.58
2017-05-29T16:39:32.343Z,4.10
2017-05-29T16:41:59.277Z,3.84
2017-05-29T16:44:27.232Z,4.62
2017-05-29T16:46:54.659Z,5.00
2017-05-29T16:49:21.849Z,4.54
2017-05-29T16:51:48.688Z,4.42
2017-05-29T16:54:15.874Z,5.00
2017-05-29T16:56:43.147Z,4.80
2017-05-29T16:59:11.598Z,5.10
2017-05-29T17:01:38.773Z,5.58
2017-05-29T17:04:05.931Z,5.80
2017-05-29T17:06:33.069Z,5.06
2017-05-29T17:09:00.828Z,4.88
2017-05-29T17:11:28.489Z,4.82
2017-05-29T17:13:55.632Z,4.78
2017-05-29T17:16:22.772Z,5.44
2017-05-29T17:18:49.975Z,5.10
2017-05-29T17:21:17.213Z,5.16
2017-05-29T17:23:44.882Z,4.96
2017-05-29T17:26:12.313Z,5.78
2017-05-29T17:28:39.607Z,5.48
2017-05-29T17:31:06.893Z,5.60
2017-05-29T17:33:33.965Z,5.08
2017-05-29T17:36:04.669Z,5.58
2017-05-29T17:38:32.068Z,5.24
2017-05-29T17:41:02.618Z,5.20
2017-05-29T17:46:02.945Z,4.80
2017-05-29T17:48:31.461Z,5.40
2017-05-29T17:50:59.138Z,4.80
2017-05-29T17:53:26.221Z,6.02
2017-05-29T17:55:54.289Z,5.76
2017-05-29T17:58:21.494Z,5.22
2017-05-29T18:05:52.342Z,5.86
2017-05-29T18:13:23.329Z,5.28
2017-05-29T18:23:30.173Z,5.60
2017-05-29T18:28:29.973Z,5.62
2017-05-29T18:30:58.205Z,6.90
2017-05-29T18:33:27.526Z,5.56
2017-05-29T18:35:56.588Z,6.36
2017-05-29T18:38:25.016Z,6.28
2017-05-29T18:40:55.635Z,6.28
2017-05-29T18:43:27.632Z,7.42
2017-05-29T18:53:40.008Z,7.14
2017-05-29T18:58:51.472Z,5.74
2017-05-29T19:01:25.890Z,5.94
2017-05-29T19:11:34.050Z,6.76
2017-05-29T19:23:22.463Z,5.96
2017-05-29T19:28:27.969Z,5.86
2017-05-29T19:30:58.956Z,7.00
2017-05-29T19:33:26.593Z,6.88
2017-05-29T19:38:26.829Z,6.30
2017-05-29T19:41:00.040Z,7.20
2017-05-29T19:46:08.264Z,7.54
2017-05-29T19:48:38.505Z,7.84
2017-05-29T19:51:09.888Z,7.26
2017-05-29T20:04:57.150Z,7.16
2017-05-29T20:07:28.361Z,9.32
2017-05-29T20:15:15.392Z,8.46
2017-05-29T20:17:45.272Z,7.50
2017-05-29T20:22:44.144Z,9.34
2017-05-29T20:27:58.300Z,9.28
2017-05-29T21:14:42.302Z,13.66
2017-05-29T21:25:09.494Z,14.58
2017-05-29T21:30:22.615Z,16.38
2017-05-29T22:28:31.660Z,17.34
2017-05-29T22:49:19.525Z,19.08
2017-05-29T22:51:53.494Z,17.46
2017-05-29T22:54:21.058Z,18.36
2017-05-29T22:56:50.517Z,18.46
2017-05-29T23:44:02.372Z,24.50
2017-05-29T23:56:48.262Z,24.86
